• Join FlightAware (Why Join?)
  • Login
  • US Flag 
01:55PM EDT


 

Airport Tracker/Info


-or-


 

Live Flight TrackerFlight Track Log ✈ N816BG ✈ 21-Jun-2014 ✈ KOSU - KTVC

Flight Track Log - Related Links

Times and Time Zones

All times are in EDT time to prevent confusion due to time zone crossing. See the N816BG flight status page for this flight to view local times or setup timezone preferences in your user account.

Time Position Orientation Groundspeed Altitude Reporting Facility
EDT Latitude Longitude Course Direction KTS MPH feet Rate Location/Type
01:01PM 40.0772 -83.0914 296° West 158 182 1,200  Level Indianapolis Center
01:03PM 40.1047 -83.1644 296° West 291 335 3,800 2,460 Climbing Indianapolis Center
01:04PM 40.1842 -83.1583 North 287 330 6,700 3,000 Climbing Indianapolis Center
01:05PM 40.2617 -83.1431 North 288 331 10,000 3,180 Climbing Indianapolis Center
01:06PM 40.3361 -83.1344 North 275 316 13,300 2,460 Climbing Indianapolis Center
01:07PM 40.4197 -83.1744 340° North 266 306 15,200 2,040 Climbing Indianapolis Center
01:08PM 40.5008 -83.2144 339° North 301 346 17,500 1,980 Climbing Indianapolis Center
01:09PM 40.5844 -83.2578 339° North 316 364 19,300 1,740 Climbing Indianapolis Center
01:10PM 40.6692 -83.3022 338° Northwest 323 372 21,100 1,680 Climbing Indianapolis Center
01:11PM 40.7561 -83.3483 338° Northwest 333 383 22,800 900 Climbing Cleveland Center
01:12PM 40.8475 -83.3950 339° North 351 404 23,000 360 Climbing Cleveland Center
01:13PM 40.9692 -83.4592 338° Northwest 389 448 23,600 960 Climbing Cleveland Center
01:14PM 41.0703 -83.5136 338° Northwest 390 449 25,000 1,380 Climbing Cleveland Center
01:15PM 41.1731 -83.5686 338° Northwest 383 441 26,500 1,380 Climbing Cleveland Center
01:16PM 41.2683 -83.6181 339° North 373 429 27,900 720 Climbing Cleveland Center
01:17PM 41.3653 -83.6686 339° North 370 426 28,000  Climbing Cleveland Center
01:18PM 41.4678 -83.7244 338° Northwest 390 449 28,000  Level Cleveland Center
01:19PM 41.5753 -83.7836 338° Northwest 410 472 28,000  Level Cleveland Center
01:20PM 41.6844 -83.8411 339° North 416 479 28,000  Level Cleveland Center
01:21PM 41.8164 -83.9128 338° Northwest 422 486 28,000  Level Cleveland Center
01:22PM 41.9278 -83.9736 338° Northwest 425 489 28,000  Level Cleveland Center
01:23PM 42.0378 -84.0331 338° Northwest 426 490 28,000  Level Cleveland Center
01:24PM 42.1494 -84.0944 338° Northwest 426 490 28,000  Level Cleveland Center
01:25PM 42.2606 -84.1550 338° Northwest 427 491 28,000  Level Cleveland Center
01:26PM 42.3703 -84.2158 338° Northwest 427 491 28,000  Level Cleveland Center
01:27PM 42.4817 -84.2767 338° Northwest 427 491 28,000  Level Cleveland Center
01:28PM 42.6142 -84.3508 338° Northwest 427 491 28,000  Level Cleveland Center
01:29PM 42.7169 -84.4092 337° Northwest 428 493 28,000  Level Cleveland Center
01:30PM 42.8272 -84.4706 338° Northwest 428 493 28,000  Level Cleveland Center
01:32PM 42.9367 -84.5317 338° Northwest 428 493 28,000 -720 Level Cleveland Center
01:33PM 43.0672 -84.6050 338° Northwest 427 491 26,600 -1,500 Descending Cleveland Center
01:34PM 43.1764 -84.6681 337° Northwest 427 491 24,900 -1,260 Descending Cleveland Center
01:35PM 43.2817 -84.7267 338° Northwest 414 476 24,000 -480 Descending Cleveland Center
01:36PM 43.3814 -84.7867 336° Northwest 397 457 24,000  Level Cleveland Center
01:37PM 43.4803 -84.8525 334° Northwest 397 457 24,000  Level Cleveland Center
01:38PM 43.5969 -84.9308 334° Northwest 391 450 24,000 -480 Level Cleveland Center
01:39PM 43.6928 -84.9964 334° Northwest 390 449 23,100 -1,320 Descending Cleveland Center
01:40PM 43.7889 -85.0633 333° Northwest 390 449 21,300 -1,860 Descending Cleveland Center
01:41PM 43.8808 -85.1267 334° Northwest 377 434 19,300 -1,800 Descending Cleveland Center
01:42PM 43.9692 -85.1875 334° Northwest 360 414 17,600 -1,800 Descending Cleveland Center
01:43PM 44.0550 -85.2444 335° Northwest 348 400 15,700 -2,040 Descending Cleveland Center
01:44PM 44.1558 -85.3158 333° Northwest 304 350 13,000 -1,860 Descending Minneapolis Center
01:45PM 44.2217 -85.3594 335° Northwest 275 316 11,500 -1,500 Descending Minneapolis Center
01:46PM 44.2878 -85.3972 338° Northwest 263 303 10,000 -1,560 Descending Minneapolis Center
01:47PM 44.3644 -85.4453 336° Northwest 258 297 8,300 -1,500 Descending Minneapolis Center
01:48PM 44.4261 -85.4906 332° Northwest 256 295 7,000 -1,320 Descending Minneapolis Center
01:49PM 44.4875 -85.5300 335° Northwest 250 288 5,600 -1,380 Descending Minneapolis Center
01:50PM 44.5503 -85.5675 337° Northwest 250 288 4,200 -1,440 Descending Minneapolis Center
01:51PM 44.6128 -85.6022 338° Northwest 249 287 2,700 -1,200 Descending Minneapolis Center
01:52PM 44.6850 -85.6317 344° North 235 270 1,800 -600 Descending Minneapolis Center
01:54PM 44.7300 -85.6342 358° North 190 219 1,500 -300 Descending Minneapolis Center
01:55PM 44.7506 -85.5822 61° Northeast 182 209 1,200 -300 Descending Minneapolis Center